Aérodrome :
LOGIN :

S'inscrire | Disclaimer

   EN    FR    IT 

 










Légende :    VFR   VFR Marginal   IFR   IFR Intensif   IFR Très Intensif
Visi : 
Plafond : 
>= 8 km
>= 3000ft
5 à 8 km
1000 à 3000 ft
1500m à 5 km
500 à 1000 ft
800 à 1500m
200 à 500 ft
< 800m
< 200 ft
Symboles :   Orages  Brouillard  Fortes neiges  Fortes précipitations  Vent > 20 kt
SIGMETs :   Divers  Orages  Givrage  Turbulence  Onde Orograph.  Cendres Volcan.







- Altitude de l'aérodrome : 12 ft
- Code IATA : NCE
- Voir les cartes d'approche


LFMN - Nice

DERNIER METAR :
  • 180230Z 33009KT 9999 FEW026 06/00 Q1009 NOSIG

METARs EXPIRÉS :
  • 180200Z 33011KT 9999 FEW026 06/01 Q1009 NOSIG
  • 180130Z 33008KT 9999 FEW040 05/02 Q1009 NOSIG
  • 180100Z 33009KT 9999 FEW040 06/03 Q1008 NOSIG
  • 180030Z 34006KT CAVOK 06/03 Q1009 NOSIG
  • 180000Z 32005KT CAVOK 05/03 Q1009 NOSIG

TAF TAF LFMN
Valide du 18 à 03h jusqu'au 19 à 09h UTC


180200Z 1803/1909 33010KT 9999 FEW030
PROB30
TEMPO 1803/1809 BKN020
BECMG 1811/1813 24010KT
PROB40
TEMPO 1813/1817 08010KT
BECMG 1817/1819 33010KT
ATIS : +33 4 93 17 21 16
Pas de NOTAMs connus pour ce terrain.
1 SIGMET publié pour la FIR Marseille (LFMM) :
 
Onde orographique forte
LFMM SIGMET 1 VALID 180000/180400 LFPW
LFMM MARSEILLE FIR/UIR SEV MTW FCST WI N4315 E00945 - N4115 E00945 - N4115 E00900 - N4300 E00845 - N4315 E00945 SFC/FL200 STNR INTSF=



MET'MAP, la Météo Aéronautique d'un coup d'oeil ! - Copyright ORBIFLY Décembre 2007 - Disclaimer

ORBIFLY MET'MAP TEAM :

Programmation & Développement : Alexandra Zaïnal
Conception & Développement : Baudouin d'Aumeries
Co-Programmation & Développement : Marc-Olivier Méhu
Soutien technique & logistique : Manuel Goepfert

Contact : metmap@orbifly.com




SOURCES & CREDITS :

   NOAA